createdAt,value
2022-09-15T00:02:13.200Z,17.60
2022-09-15T00:05:01.464Z,10.40
2022-09-15T00:07:49.680Z,11.18
2022-09-15T00:10:37.787Z,14.85
2022-09-15T00:13:27.156Z,15.80
2022-09-15T00:16:18.146Z,11.80
2022-09-15T00:21:54.833Z,14.20
2022-09-15T00:24:43.124Z,10.05
2022-09-15T00:27:32.693Z,12.35
2022-09-15T00:30:20.807Z,15.40
2022-09-15T00:33:10.587Z,14.57
2022-09-15T00:36:02.030Z,16.95
2022-09-15T00:38:50.695Z,19.30
2022-09-15T00:41:40.557Z,13.02
2022-09-15T00:44:56.976Z,20.50
2022-09-15T00:47:45.426Z,16.88
2022-09-15T00:50:36.862Z,16.70
2022-09-15T00:53:26.410Z,20.10
2022-09-15T00:56:17.205Z,15.50
2022-09-15T00:59:10.242Z,11.65
2022-09-15T01:02:02.276Z,16.08
2022-09-15T01:04:54.820Z,16.30
2022-09-15T01:07:52.732Z,19.27
2022-09-15T01:10:41.989Z,10.85
2022-09-15T01:13:30.661Z,16.42
2022-09-15T01:16:26.172Z,12.65
2022-09-15T01:19:33.643Z,14.93
2022-09-15T01:22:33.681Z,15.38
2022-09-15T01:25:41.471Z,18.20
2022-09-15T01:28:55.197Z,16.00
2022-09-15T01:32:04.853Z,13.88
2022-09-15T01:35:01.843Z,16.50
2022-09-15T01:37:56.759Z,18.58
2022-09-15T01:40:52.161Z,18.92
2022-09-15T01:43:45.225Z,16.92
2022-09-15T01:46:37.070Z,17.70
2022-09-15T01:49:30.934Z,19.00
2022-09-15T01:52:22.017Z,17.63
2022-09-15T01:55:17.067Z,17.80
2022-09-15T01:58:05.797Z,16.83
2022-09-15T02:00:58.891Z,21.15
2022-09-15T02:03:54.898Z,15.00
2022-09-15T02:06:53.339Z,18.85
2022-09-15T02:09:46.741Z,19.48
2022-09-15T02:12:40.176Z,21.67
2022-09-15T02:15:33.382Z,23.45
2022-09-15T02:18:29.898Z,21.08
2022-09-15T02:21:23.347Z,21.63
2022-09-15T02:24:18.675Z,22.10
2022-09-15T02:27:11.813Z,22.25
2022-09-15T02:30:06.011Z,24.02
2022-09-15T02:32:59.175Z,18.67
2022-09-15T02:35:48.534Z,19.77
2022-09-15T02:38:43.071Z,22.52
2022-09-15T02:41:34.291Z,18.90
2022-09-15T02:44:23.456Z,19.15
2022-09-15T02:47:11.794Z,21.55
2022-09-15T02:50:00.196Z,26.33
2022-09-15T02:52:48.393Z,23.17
2022-09-15T02:55:36.566Z,21.90
2022-09-15T02:58:26.199Z,18.15
2022-09-15T03:01:16.067Z,20.33
2022-09-15T03:04:05.223Z,20.40
2022-09-15T03:06:53.398Z,20.17
2022-09-15T03:09:42.023Z,24.17
2022-09-15T03:12:30.210Z,20.25
2022-09-15T03:15:21.929Z,17.02
2022-09-15T03:18:10.071Z,17.48
2022-09-15T03:20:58.255Z,15.45
2022-09-15T03:23:46.809Z,17.83
2022-09-15T03:26:34.953Z,15.77
2022-09-15T03:29:23.326Z,15.93
2022-09-15T03:32:12.810Z,16.50
2022-09-15T03:35:01.137Z,19.45
2022-09-15T03:37:49.258Z,18.67
2022-09-15T03:40:37.856Z,14.95
2022-09-15T03:43:26.132Z,18.65
2022-09-15T03:46:14.680Z,18.08
2022-09-15T03:49:04.266Z,17.20
2022-09-15T03:51:52.784Z,15.93
2022-09-15T03:54:41.430Z,17.02
2022-09-15T03:57:29.597Z,18.80
2022-09-15T04:00:17.805Z,17.10
2022-09-15T04:03:06.797Z,15.60
2022-09-15T04:05:56.349Z,18.92
2022-09-15T04:08:44.974Z,14.52
2022-09-15T04:11:33.814Z,14.32
2022-09-15T04:14:21.974Z,14.27
2022-09-15T04:17:10.711Z,17.77
2022-09-15T04:19:58.893Z,19.10
2022-09-15T04:22:48.471Z,20.10
2022-09-15T04:25:36.630Z,17.33
2022-09-15T04:28:25.690Z,20.05
2022-09-15T04:31:15.551Z,17.25
2022-09-15T04:34:03.916Z,24.98
2022-09-15T04:36:52.225Z,19.77
2022-09-15T04:39:42.447Z,17.40
2022-09-15T04:42:31.435Z,17.77
2022-09-15T04:45:19.637Z,14.38
2022-09-15T04:48:07.771Z,21.73
2022-09-15T04:50:56.019Z,20.30
2022-09-15T04:53:45.041Z,23.55
2022-09-15T04:56:34.629Z,21.00
2022-09-15T04:59:22.802Z,18.50
2022-09-15T05:02:11.133Z,22.38
2022-09-15T05:04:59.523Z,17.15
2022-09-15T05:07:49.187Z,18.02
2022-09-15T05:10:38.210Z,20.17
2022-09-15T05:13:27.741Z,20.50
2022-09-15T05:16:17.647Z,21.27
2022-09-15T05:19:06.039Z,25.73
2022-09-15T05:21:54.226Z,18.85
2022-09-15T05:24:42.366Z,22.95
2022-09-15T05:27:32.700Z,19.55
2022-09-15T05:30:37.844Z,25.05
2022-09-15T05:33:27.857Z,24.33
2022-09-15T05:36:17.475Z,22.80
2022-09-15T05:39:05.727Z,21.92
2022-09-15T05:41:53.931Z,21.63
2022-09-15T05:44:42.043Z,22.58
2022-09-15T05:47:31.767Z,24.63
2022-09-15T05:50:19.916Z,24.67
2022-09-15T05:53:08.427Z,23.77
2022-09-15T05:55:57.483Z,21.17
2022-09-15T05:58:48.120Z,24.48
2022-09-15T06:01:36.526Z,19.65
2022-09-15T06:04:26.087Z,22.20
2022-09-15T06:07:14.242Z,22.33
2022-09-15T06:10:02.392Z,24.85
2022-09-15T06:12:51.260Z,25.33
2022-09-15T06:15:39.441Z,28.33
2022-09-15T06:18:27.586Z,22.33
2022-09-15T06:21:19.308Z,21.13
2022-09-15T06:24:07.822Z,24.25
2022-09-15T06:26:55.999Z,24.00
2022-09-15T06:29:44.111Z,21.08
2022-09-15T06:32:32.416Z,23.00
2022-09-15T06:35:20.549Z,21.98
2022-09-15T06:38:10.105Z,20.23
2022-09-15T06:40:58.993Z,22.88
2022-09-15T06:43:49.227Z,21.95
2022-09-15T06:46:37.782Z,21.83
2022-09-15T06:49:26.606Z,26.13
2022-09-15T06:52:15.231Z,22.27
2022-09-15T06:55:05.650Z,25.48
2022-09-15T06:57:53.807Z,21.95
2022-09-15T07:00:42.196Z,18.80
2022-09-15T07:03:30.678Z,21.77
2022-09-15T07:06:19.607Z,17.52
2022-09-15T07:09:08.145Z,24.33
2022-09-15T07:11:57.737Z,20.77
2022-09-15T07:14:45.949Z,17.90
2022-09-15T07:17:34.256Z,18.88
2022-09-15T07:20:22.870Z,18.15
2022-09-15T07:23:11.094Z,21.83
2022-09-15T07:26:10.979Z,24.02
2022-09-15T07:29:02.099Z,24.95
2022-09-15T07:31:50.679Z,17.70
2022-09-15T07:34:38.927Z,17.95
2022-09-15T07:37:27.308Z,20.77
2022-09-15T07:40:15.792Z,23.30
2022-09-15T07:43:04.715Z,20.98
2022-09-15T07:45:57.982Z,18.67
2022-09-15T07:48:46.701Z,19.50
2022-09-15T07:51:34.865Z,22.23
2022-09-15T07:54:23.353Z,21.55
2022-09-15T07:57:11.539Z,20.85
2022-09-15T07:59:59.691Z,19.15
2022-09-15T08:02:49.173Z,18.98
2022-09-15T08:05:40.261Z,19.50
2022-09-15T08:08:30.825Z,19.75
2022-09-15T08:11:20.578Z,19.48
2022-09-15T08:14:09.106Z,16.02
2022-09-15T08:16:58.102Z,17.17
2022-09-15T08:19:48.107Z,15.88
2022-09-15T08:22:36.666Z,21.57
2022-09-15T08:25:24.838Z,17.30
2022-09-15T08:28:13.132Z,12.52
2022-09-15T08:31:02.189Z,12.63
2022-09-15T08:33:51.345Z,14.10
2022-09-15T08:36:41.187Z,11.25
2022-09-15T08:39:29.333Z,13.65
2022-09-15T08:42:19.777Z,15.38
2022-09-15T08:45:16.950Z,12.27
2022-09-15T08:48:08.531Z,9.63
2022-09-15T08:51:00.846Z,10.73
2022-09-15T08:53:58.369Z,10.88
2022-09-15T08:56:47.341Z,9.27
2022-09-15T08:59:36.655Z,9.27
2022-09-15T09:02:59.830Z,10.40
2022-09-15T09:05:55.348Z,7.97
2022-09-15T09:09:06.062Z,9.23
2022-09-15T09:12:07.353Z,6.15
2022-09-15T09:15:12.393Z,6.10
2022-09-15T09:18:18.443Z,8.25
2022-09-15T09:21:15.613Z,5.00
2022-09-15T09:24:07.208Z,7.55
2022-09-15T09:26:56.801Z,7.95
2022-09-15T09:29:49.509Z,5.32
2022-09-15T09:32:43.906Z,7.70
2022-09-15T09:35:37.879Z,7.80
2022-09-15T09:38:29.959Z,6.00
2022-09-15T09:41:25.915Z,5.60
2022-09-15T09:44:15.933Z,7.10
2022-09-15T09:47:04.829Z,6.73
2022-09-15T09:49:53.042Z,5.25
2022-09-15T09:52:41.191Z,7.85
2022-09-15T09:55:29.713Z,6.63
2022-09-15T09:58:22.200Z,9.07
2022-09-15T10:01:12.025Z,7.00
2022-09-15T10:04:14.034Z,7.47
2022-09-15T10:07:02.289Z,7.70
2022-09-15T10:09:53.519Z,7.38
2022-09-15T10:12:42.704Z,6.47
2022-09-15T10:15:34.587Z,6.45
2022-09-15T10:18:30.774Z,8.30
2022-09-15T10:21:24.430Z,6.07
2022-09-15T10:24:28.914Z,6.97
2022-09-15T10:27:27.551Z,7.47
2022-09-15T10:30:19.854Z,6.70
2022-09-15T10:33:26.913Z,7.35
2022-09-15T10:36:17.557Z,5.75
2022-09-15T10:39:15.930Z,8.27
2022-09-15T10:42:12.906Z,8.18
2022-09-15T10:45:28.306Z,7.18
2022-09-15T10:48:56.749Z,6.78
2022-09-15T10:51:55.033Z,7.57
2022-09-15T10:54:58.678Z,4.68
2022-09-15T10:58:08.062Z,6.43
2022-09-15T11:01:06.710Z,7.45
2022-09-15T11:04:34.354Z,3.65
2022-09-15T11:07:34.565Z,3.65
2022-09-15T11:10:29.808Z,4.60
2022-09-15T11:13:25.645Z,4.25
2022-09-15T11:16:21.146Z,6.15
2022-09-15T11:19:25.381Z,6.45
2022-09-15T11:22:17.527Z,2.30
2022-09-15T11:25:16.855Z,1.45
2022-09-15T11:28:12.248Z,2.60
2022-09-15T11:31:04.110Z,3.75
2022-09-15T11:33:58.407Z,3.63
2022-09-15T11:36:51.675Z,4.65
2022-09-15T11:39:45.609Z,2.58
2022-09-15T11:42:41.323Z,6.40
2022-09-15T11:45:35.613Z,2.72
2022-09-15T11:48:32.013Z,8.38
2022-09-15T11:51:25.059Z,5.28
2022-09-15T11:54:18.880Z,6.00
2022-09-15T11:57:16.087Z,4.25
2022-09-15T12:00:11.668Z,1.92
2022-09-15T12:03:14.869Z,3.92
2022-09-15T12:06:15.698Z,4.47
2022-09-15T12:11:56.338Z,6.47
2022-09-15T12:14:46.692Z,2.88
2022-09-15T12:17:43.790Z,5.10
2022-09-15T12:20:38.157Z,3.88
2022-09-15T12:23:33.054Z,3.70
2022-09-15T12:26:23.717Z,3.28
2022-09-15T12:29:31.364Z,4.28
2022-09-15T12:32:26.502Z,4.55
2022-09-15T12:35:34.435Z,5.35
2022-09-15T12:38:24.636Z,5.72
2022-09-15T12:41:13.721Z,3.80
2022-09-15T12:44:07.248Z,3.08
2022-09-15T12:46:57.997Z,4.07
2022-09-15T12:52:46.277Z,3.25
2022-09-15T12:55:37.516Z,1.83
2022-09-15T12:58:30.536Z,5.07
2022-09-15T13:01:35.342Z,5.85
2022-09-15T13:04:43.989Z,3.47
2022-09-15T13:07:55.472Z,2.03
2022-09-15T13:11:00.438Z,5.32
2022-09-15T13:13:52.754Z,2.70
2022-09-15T13:16:47.525Z,4.93
2022-09-15T13:19:43.633Z,4.20
2022-09-15T13:22:37.147Z,5.32
2022-09-15T13:25:29.943Z,5.90
2022-09-15T13:28:19.316Z,7.40
2022-09-15T13:31:18.845Z,3.63
2022-09-15T13:35:13.455Z,3.65
2022-09-15T13:38:29.097Z,2.95
2022-09-15T13:41:43.028Z,3.95
2022-09-15T13:44:56.906Z,4.07
2022-09-15T13:47:58.809Z,4.85
2022-09-15T13:50:57.031Z,3.70
2022-09-15T13:53:51.524Z,3.88
2022-09-15T13:56:41.744Z,1.63
2022-09-15T13:59:32.590Z,4.82
2022-09-15T14:02:21.311Z,3.10
2022-09-15T14:05:10.578Z,3.35
2022-09-15T14:08:02.595Z,2.92
2022-09-15T14:10:54.524Z,4.10
2022-09-15T14:13:47.226Z,7.40
2022-09-15T14:16:37.624Z,2.80
2022-09-15T14:19:34.370Z,4.28
2022-09-15T14:22:28.317Z,5.35
2022-09-15T14:25:18.069Z,1.55
2022-09-15T14:28:07.818Z,4.22
2022-09-15T14:30:57.487Z,3.13
2022-09-15T14:33:47.848Z,2.95
2022-09-15T14:36:36.246Z,5.78
2022-09-15T14:39:24.991Z,2.25
2022-09-15T14:42:22.833Z,2.08
2022-09-15T14:48:28.094Z,3.55
2022-09-15T14:51:28.742Z,3.03
2022-09-15T14:54:21.337Z,4.45
2022-09-15T14:57:11.025Z,3.17
2022-09-15T15:00:03.644Z,1.60
2022-09-15T15:03:12.526Z,2.80
2022-09-15T15:06:28.973Z,7.03
2022-09-15T15:09:22.462Z,3.88
2022-09-15T15:12:21.691Z,3.17
2022-09-15T15:15:12.797Z,2.53
2022-09-15T15:18:01.458Z,4.43
2022-09-15T15:20:51.046Z,6.13
2022-09-15T15:23:47.238Z,5.80
2022-09-15T15:26:37.319Z,3.28
2022-09-15T15:29:43.887Z,3.38
2022-09-15T15:32:32.789Z,2.80
2022-09-15T15:35:21.722Z,6.60
2022-09-15T15:38:17.460Z,2.53
2022-09-15T15:41:08.911Z,2.17
2022-09-15T15:43:59.267Z,3.47
2022-09-15T15:46:53.161Z,4.13
2022-09-15T15:50:02.151Z,2.75
2022-09-15T15:52:50.241Z,3.00
2022-09-15T15:55:40.998Z,1.60
2022-09-15T16:01:18.536Z,2.45
2022-09-15T16:04:07.377Z,0.80
2022-09-15T16:06:55.526Z,3.58
2022-09-15T16:09:44.160Z,1.33
2022-09-15T16:12:34.793Z,0.52
2022-09-15T16:15:25.025Z,2.17
2022-09-15T16:18:13.355Z,2.33
2022-09-15T16:21:01.530Z,2.78
2022-09-15T16:23:49.718Z,1.10
2022-09-15T16:26:38.162Z,2.53
2022-09-15T16:29:29.906Z,2.97
2022-09-15T16:32:22.238Z,2.28
2022-09-15T16:35:22.215Z,4.55
2022-09-15T16:38:11.100Z,2.77
2022-09-15T16:40:59.569Z,3.92
2022-09-15T16:43:48.561Z,2.50
2022-09-15T16:46:36.732Z,3.90
2022-09-15T16:49:26.312Z,1.90
2022-09-15T16:52:14.547Z,1.05
2022-09-15T16:55:02.839Z,2.50
2022-09-15T16:57:51.105Z,1.95
2022-09-15T17:00:39.923Z,2.28
2022-09-15T17:03:28.411Z,1.35
2022-09-15T17:06:19.202Z,2.72
2022-09-15T17:09:07.425Z,2.35
2022-09-15T17:11:56.346Z,1.77
2022-09-15T17:14:44.498Z,1.15
2022-09-15T17:17:32.725Z,1.83
2022-09-15T17:20:21.477Z,1.70
2022-09-15T17:23:20.409Z,1.55
2022-09-15T17:26:12.907Z,0.98
2022-09-15T17:29:01.468Z,1.25
2022-09-15T17:31:49.603Z,2.05
2022-09-15T17:34:37.739Z,1.98
2022-09-15T17:37:25.841Z,2.30
2022-09-15T17:40:17.127Z,2.17
2022-09-15T17:43:05.912Z,1.45
2022-09-15T17:45:54.894Z,4.15
2022-09-15T17:48:43.043Z,0.77
2022-09-15T17:51:31.403Z,1.88
2022-09-15T17:54:19.566Z,4.47
2022-09-15T17:57:09.405Z,1.75
2022-09-15T17:59:57.567Z,1.88
2022-09-15T18:02:50.505Z,1.60
2022-09-15T18:05:39.319Z,3.28
2022-09-15T18:08:28.865Z,2.55
2022-09-15T18:11:17.175Z,1.77
2022-09-15T18:14:06.682Z,1.65
2022-09-15T18:16:54.885Z,1.70
2022-09-15T18:19:43.041Z,2.25
2022-09-15T18:22:31.229Z,2.25
2022-09-15T18:25:23.706Z,5.18
2022-09-15T18:28:12.209Z,1.33
2022-09-15T18:31:02.139Z,1.73
2022-09-15T18:33:50.324Z,2.15
2022-09-15T18:36:40.411Z,1.85
2022-09-15T18:39:29.463Z,5.30
2022-09-15T18:42:17.665Z,2.30
2022-09-15T18:45:07.831Z,1.48
2022-09-15T18:47:57.382Z,5.22
2022-09-15T18:50:46.155Z,1.10
2022-09-15T18:53:36.455Z,1.27
2022-09-15T18:56:24.949Z,2.78
2022-09-15T18:59:17.458Z,4.57
2022-09-15T19:02:06.260Z,2.80
2022-09-15T19:04:56.430Z,2.67
2022-09-15T19:07:45.893Z,6.67
2022-09-15T19:10:34.498Z,6.50
2022-09-15T19:13:22.738Z,1.17
2022-09-15T19:16:10.993Z,3.80
2022-09-15T19:18:59.167Z,2.28
2022-09-15T19:21:48.708Z,2.28
2022-09-15T19:24:37.040Z,2.35
2022-09-15T19:27:25.273Z,2.55
2022-09-15T19:30:14.031Z,3.22
2022-09-15T19:33:04.062Z,4.28
2022-09-15T19:36:04.919Z,3.10
2022-09-15T19:39:03.425Z,1.98
2022-09-15T19:41:51.621Z,2.38
2022-09-15T19:44:39.897Z,2.50
2022-09-15T19:47:29.976Z,6.35
2022-09-15T19:50:18.303Z,1.77
2022-09-15T19:53:06.445Z,3.70
2022-09-15T19:55:55.994Z,3.05
2022-09-15T19:58:44.282Z,3.65
2022-09-15T20:01:33.252Z,2.17
2022-09-15T20:04:21.410Z,3.90
2022-09-15T20:07:09.842Z,2.53
2022-09-15T20:09:58.855Z,5.03
2022-09-15T20:12:48.394Z,4.50
2022-09-15T20:15:36.623Z,4.75
2022-09-15T20:18:25.035Z,2.80
2022-09-15T20:21:26.769Z,3.13
2022-09-15T20:24:22.202Z,1.80
2022-09-15T20:27:10.415Z,3.72
2022-09-15T20:29:59.937Z,3.42
2022-09-15T20:32:48.475Z,4.82
2022-09-15T20:35:36.924Z,3.75
2022-09-15T20:38:27.710Z,3.60
2022-09-15T20:41:17.546Z,4.03
2022-09-15T20:44:09.364Z,2.47
2022-09-15T20:46:59.082Z,7.10
2022-09-15T20:49:47.379Z,3.78
2022-09-15T20:52:38.380Z,4.20
2022-09-15T20:55:27.162Z,3.97
2022-09-15T20:58:15.467Z,6.07
2022-09-15T21:01:06.090Z,4.63
2022-09-15T21:03:56.341Z,3.95
2022-09-15T21:06:44.684Z,2.50
2022-09-15T21:09:32.866Z,5.82
2022-09-15T21:12:22.067Z,1.73
2022-09-15T21:15:11.313Z,3.63
2022-09-15T21:17:59.529Z,2.30
2022-09-15T21:20:55.555Z,2.45
2022-09-15T21:23:46.522Z,3.78
2022-09-15T21:29:23.851Z,6.22
2022-09-15T21:32:12.057Z,3.83
2022-09-15T21:35:00.249Z,2.55
2022-09-15T21:37:49.786Z,2.63
2022-09-15T21:40:37.945Z,2.70
2022-09-15T21:43:30.215Z,5.03
2022-09-15T21:46:20.476Z,43.70
2022-09-15T21:49:09.093Z,27.85
2022-09-15T21:51:57.284Z,12.23
2022-09-15T21:54:46.777Z,6.07
2022-09-15T21:57:35.003Z,4.05
2022-09-15T22:00:23.926Z,2.40
2022-09-15T22:03:12.208Z,1.83
2022-09-15T22:06:00.382Z,2.22
2022-09-15T22:08:48.748Z,2.90
2022-09-15T22:11:38.460Z,3.60
2022-09-15T22:14:26.745Z,5.45
2022-09-15T22:17:15.042Z,3.45
2022-09-15T22:20:03.727Z,6.22
2022-09-15T22:22:52.095Z,3.08
2022-09-15T22:25:40.260Z,5.30
2022-09-15T22:28:29.885Z,2.90
2022-09-15T22:31:20.384Z,2.97
2022-09-15T22:34:08.580Z,5.45
2022-09-15T22:36:57.048Z,2.72
2022-09-15T22:39:58.435Z,3.75
2022-09-15T22:42:47.606Z,2.35
2022-09-15T22:45:37.175Z,4.93
2022-09-15T22:48:25.487Z,5.28
2022-09-15T22:51:14.650Z,6.40
2022-09-15T22:54:02.933Z,5.75
2022-09-15T22:56:51.098Z,4.00
2022-09-15T22:59:39.279Z,6.80
2022-09-15T23:02:28.871Z,4.95
2022-09-15T23:05:17.454Z,4.78
2022-09-15T23:08:05.710Z,7.43
2022-09-15T23:10:53.826Z,3.15
2022-09-15T23:13:42.846Z,3.05
2022-09-15T23:16:32.326Z,5.15
2022-09-15T23:19:21.889Z,4.93
2022-09-15T23:22:10.113Z,2.95
2022-09-15T23:24:58.259Z,7.35
2022-09-15T23:27:47.137Z,3.83
2022-09-15T23:30:35.715Z,5.45
2022-09-15T23:33:24.911Z,1.77
2022-09-15T23:36:16.414Z,4.03
2022-09-15T23:39:04.758Z,2.55
2022-09-15T23:41:52.935Z,3.45
2022-09-15T23:44:41.110Z,5.22
2022-09-15T23:47:29.288Z,6.50
2022-09-15T23:50:17.976Z,5.07
2022-09-15T23:53:08.385Z,3.30
2022-09-15T23:55:56.755Z,3.97
2022-09-15T23:58:44.913Z,3.10
